createdAt,value
2022-10-25T00:00:03.759Z,72.88
2022-10-25T00:02:30.142Z,72.86
2022-10-25T00:04:56.426Z,72.88
2022-10-25T00:07:22.769Z,72.98
2022-10-25T00:09:49.094Z,73.09
2022-10-25T00:12:15.476Z,73.61
2022-10-25T00:14:41.809Z,73.68
2022-10-25T00:17:08.161Z,73.65
2022-10-25T00:19:34.500Z,73.64
2022-10-25T00:22:00.850Z,73.61
2022-10-25T00:24:27.189Z,73.63
2022-10-25T00:26:53.507Z,73.11
2022-10-25T00:29:19.893Z,73.49
2022-10-25T00:31:46.179Z,73.68
2022-10-25T00:34:12.504Z,73.67
2022-10-25T00:36:38.880Z,73.71
2022-10-25T00:39:05.186Z,73.61
2022-10-25T00:41:31.533Z,74.04
2022-10-25T00:43:57.875Z,73.84
2022-10-25T00:46:24.233Z,73.63
2022-10-25T00:48:50.569Z,73.57
2022-10-25T00:51:16.906Z,73.80
2022-10-25T00:53:43.249Z,74.01
2022-10-25T00:56:09.660Z,74.22
2022-10-25T00:58:36.006Z,74.61
2022-10-25T01:01:02.400Z,74.72
2022-10-25T01:03:28.708Z,74.64
2022-10-25T01:05:55.066Z,74.68
2022-10-25T01:08:21.389Z,74.19
2022-10-25T01:10:47.735Z,74.16
2022-10-25T01:13:14.058Z,73.81
2022-10-25T01:15:40.404Z,73.77
2022-10-25T01:18:06.773Z,74.01
2022-10-25T01:20:33.116Z,74.11
2022-10-25T01:22:59.433Z,73.65
2022-10-25T01:25:25.787Z,73.05
2022-10-25T01:27:52.149Z,72.61
2022-10-25T01:30:18.463Z,72.66
2022-10-25T01:32:45.081Z,72.96
2022-10-25T01:35:11.168Z,72.92
2022-10-25T01:37:37.517Z,72.96
2022-10-25T01:40:03.848Z,73.26
2022-10-25T01:42:30.195Z,73.52
2022-10-25T01:44:56.545Z,73.40
2022-10-25T01:47:22.900Z,73.77
2022-10-25T01:49:49.222Z,74.64
2022-10-25T01:52:15.542Z,75.16
2022-10-25T01:54:41.923Z,75.27
2022-10-25T01:57:08.238Z,75.27
2022-10-25T01:59:34.582Z,75.41
2022-10-25T02:02:00.899Z,75.34
2022-10-25T02:04:27.252Z,75.40
2022-10-25T02:06:53.568Z,74.99
2022-10-25T02:09:19.955Z,74.61
2022-10-25T02:11:46.291Z,75.08
2022-10-25T02:14:12.614Z,75.13
2022-10-25T02:16:38.974Z,75.45
2022-10-25T02:19:05.333Z,75.35
2022-10-25T02:21:31.650Z,75.49
2022-10-25T02:23:58.036Z,75.59
2022-10-25T02:26:24.353Z,75.80
2022-10-25T02:28:50.683Z,75.70
2022-10-25T02:31:17.025Z,75.80
2022-10-25T02:33:43.373Z,75.89
2022-10-25T02:36:09.690Z,76.05
2022-10-25T02:38:36.020Z,75.57
2022-10-25T02:41:02.377Z,75.12
2022-10-25T02:45:55.047Z,74.95
2022-10-25T02:48:21.372Z,75.01
2022-10-25T02:50:47.714Z,74.92
2022-10-25T02:53:14.030Z,74.66
2022-10-25T02:55:40.349Z,75.48
2022-10-25T02:58:06.731Z,76.08
2022-10-25T03:00:33.143Z,76.77
2022-10-25T03:02:59.430Z,76.95
2022-10-25T03:05:25.754Z,76.69
2022-10-25T03:07:52.107Z,77.11
2022-10-25T03:10:18.428Z,77.16
2022-10-25T03:12:45.053Z,77.44
2022-10-25T03:15:11.133Z,77.79
2022-10-25T03:17:37.474Z,77.97
2022-10-25T03:20:03.805Z,77.61
2022-10-25T03:22:30.163Z,77.52
2022-10-25T03:24:56.542Z,77.80
2022-10-25T03:27:22.850Z,77.81
2022-10-25T03:29:49.208Z,77.53
2022-10-25T03:32:15.529Z,76.98
2022-10-25T03:34:41.871Z,76.92
2022-10-25T03:37:08.256Z,76.95
2022-10-25T03:39:34.566Z,77.13
2022-10-25T03:42:00.916Z,77.28
2022-10-25T03:44:27.237Z,77.38
2022-10-25T03:46:53.593Z,77.80
2022-10-25T03:49:19.943Z,78.42
2022-10-25T03:51:46.270Z,78.86
2022-10-25T03:54:12.590Z,79.50
2022-10-25T03:56:38.938Z,78.49
2022-10-25T03:59:05.254Z,78.74
2022-10-25T04:01:31.699Z,79.06
2022-10-25T04:03:57.961Z,78.80
2022-10-25T04:06:24.275Z,77.79
2022-10-25T04:08:50.590Z,77.64
2022-10-25T04:11:16.941Z,77.70
2022-10-25T04:13:43.267Z,77.68
2022-10-25T04:16:10.231Z,78.07
2022-10-25T04:18:36.582Z,78.40
2022-10-25T04:21:02.905Z,78.60
2022-10-25T04:23:29.247Z,78.16
2022-10-25T04:25:55.662Z,77.83
2022-10-25T04:28:21.982Z,78.13
2022-10-25T04:30:48.311Z,78.19
2022-10-25T04:33:14.631Z,78.28
2022-10-25T04:35:40.980Z,78.09
2022-10-25T04:38:07.299Z,78.19
2022-10-25T04:40:33.642Z,78.16
2022-10-25T04:42:59.968Z,77.92
2022-10-25T04:45:26.317Z,78.29
2022-10-25T04:47:52.629Z,78.27
2022-10-25T04:50:18.993Z,77.87
2022-10-25T04:52:45.581Z,77.77
2022-10-25T04:55:11.650Z,77.82
2022-10-25T04:57:38.007Z,77.75
2022-10-25T05:00:04.352Z,77.57
2022-10-25T05:02:30.711Z,77.60
2022-10-25T05:04:57.055Z,77.37
2022-10-25T05:07:23.376Z,76.65
2022-10-25T05:09:49.726Z,76.04
2022-10-25T05:12:16.042Z,75.87
2022-10-25T05:14:42.367Z,76.01
2022-10-25T05:17:08.698Z,75.87
2022-10-25T05:19:35.051Z,75.69
2022-10-25T05:22:01.383Z,75.18
2022-10-25T05:24:27.724Z,73.89
2022-10-25T05:26:54.048Z,73.13
2022-10-25T05:29:20.481Z,72.71
2022-10-25T05:31:46.814Z,72.19
2022-10-25T05:34:13.163Z,72.00
2022-10-25T05:36:39.506Z,71.96
2022-10-25T05:39:05.840Z,72.00
2022-10-25T05:41:34.813Z,70.50
2022-10-25T05:43:58.544Z,70.17
2022-10-25T05:46:24.877Z,69.83
2022-10-25T05:48:51.267Z,69.02
2022-10-25T05:53:43.916Z,68.12
2022-10-25T05:56:10.272Z,67.43
2022-10-25T05:58:36.593Z,66.72
2022-10-25T06:01:03.041Z,66.45
2022-10-25T06:03:29.276Z,66.33
2022-10-25T06:05:55.591Z,65.35
2022-10-25T06:08:21.943Z,65.08
2022-10-25T06:13:14.654Z,63.99
2022-10-25T06:15:40.993Z,63.72
2022-10-25T06:18:07.341Z,62.74
2022-10-25T06:20:33.750Z,61.87
2022-10-25T06:23:00.047Z,61.69
2022-10-25T06:25:26.378Z,60.46
2022-10-25T06:27:52.713Z,60.43
2022-10-25T06:30:19.140Z,61.00
2022-10-25T06:32:45.815Z,60.03
2022-10-25T06:35:11.767Z,58.36
2022-10-25T06:37:38.110Z,59.33
2022-10-25T06:40:04.464Z,58.24
2022-10-25T06:42:30.801Z,57.65
2022-10-25T06:44:57.149Z,56.39
2022-10-25T06:47:23.460Z,55.58
2022-10-25T06:49:49.809Z,56.76
2022-10-25T06:52:16.149Z,56.86
2022-10-25T06:54:42.483Z,57.09
2022-10-25T06:57:08.824Z,56.58
2022-10-25T06:59:35.140Z,56.77
2022-10-25T07:02:01.641Z,56.00
2022-10-25T07:04:27.832Z,55.39
2022-10-25T07:06:55.348Z,53.33
2022-10-25T07:09:20.535Z,53.45
2022-10-25T07:11:46.883Z,53.29
2022-10-25T07:14:13.216Z,53.53
2022-10-25T07:16:39.752Z,53.24
2022-10-25T07:19:06.068Z,51.79
2022-10-25T07:21:32.462Z,50.74
2022-10-25T07:23:58.888Z,51.01
2022-10-25T07:26:25.243Z,49.79
2022-10-25T07:28:51.557Z,49.09
2022-10-25T07:31:17.953Z,47.80
2022-10-25T07:33:44.299Z,46.70
2022-10-25T07:36:11.630Z,46.65
2022-10-25T07:38:37.008Z,45.81
2022-10-25T07:41:03.350Z,46.76
2022-10-25T07:43:29.695Z,46.85
2022-10-25T07:45:56.048Z,46.97
2022-10-25T07:48:22.366Z,46.27
2022-10-25T07:50:48.692Z,46.41
2022-10-25T07:53:15.177Z,46.23
2022-10-25T07:55:41.503Z,46.51
2022-10-25T07:58:07.819Z,45.29
2022-10-25T08:00:34.189Z,43.29
2022-10-25T08:03:00.594Z,42.28
2022-10-25T08:05:26.856Z,42.09
2022-10-25T08:07:53.230Z,41.78
2022-10-25T08:10:19.584Z,41.93
2022-10-25T08:12:45.925Z,42.22
2022-10-25T08:15:12.381Z,42.48
2022-10-25T08:17:38.718Z,41.98
2022-10-25T08:20:05.079Z,41.42
2022-10-25T08:22:31.397Z,41.14
2022-10-25T08:24:57.720Z,40.72
2022-10-25T08:27:24.056Z,40.76
2022-10-25T08:29:50.378Z,40.93
2022-10-25T08:32:16.717Z,41.81
2022-10-25T08:34:43.060Z,40.92
2022-10-25T08:37:09.382Z,40.35
2022-10-25T08:39:35.729Z,39.94
2022-10-25T08:42:02.076Z,39.25
2022-10-25T08:44:28.425Z,39.98
2022-10-25T08:46:54.758Z,39.48
2022-10-25T08:49:21.125Z,38.97
2022-10-25T08:51:47.438Z,38.76
2022-10-25T08:54:13.788Z,37.67
2022-10-25T08:56:51.234Z,37.79
2022-10-25T08:59:06.482Z,38.84
2022-10-25T09:01:32.859Z,38.22
2022-10-25T09:03:59.156Z,37.33
2022-10-25T09:06:25.497Z,36.98
2022-10-25T09:08:51.820Z,36.17
2022-10-25T09:11:18.144Z,36.20
2022-10-25T09:13:44.489Z,36.01
2022-10-25T09:16:10.827Z,35.25
2022-10-25T09:18:37.161Z,34.83
2022-10-25T09:21:03.492Z,35.32
2022-10-25T09:23:29.817Z,34.76
2022-10-25T09:25:56.185Z,35.11
2022-10-25T09:28:22.535Z,34.27
2022-10-25T09:30:48.884Z,34.27
2022-10-25T09:35:41.593Z,34.15
2022-10-25T09:38:07.922Z,33.75
2022-10-25T09:40:34.268Z,33.91
2022-10-25T09:43:00.622Z,33.74
2022-10-25T09:45:26.959Z,33.80
2022-10-25T09:47:53.272Z,33.11
2022-10-25T09:50:19.621Z,33.55
2022-10-25T09:52:45.957Z,33.41
2022-10-25T09:55:12.312Z,32.95
2022-10-25T09:57:38.626Z,32.86
2022-10-25T10:00:04.978Z,32.84
2022-10-25T10:02:31.447Z,33.08
2022-10-25T10:04:57.704Z,33.64
2022-10-25T10:07:24.040Z,33.54
2022-10-25T10:09:50.389Z,33.77
2022-10-25T10:12:16.709Z,33.39
2022-10-25T10:14:43.039Z,33.26
2022-10-25T10:17:09.395Z,33.52
2022-10-25T10:19:35.722Z,33.71
2022-10-25T10:22:02.083Z,34.28
2022-10-25T10:24:28.373Z,33.89
2022-10-25T10:26:54.749Z,33.76
2022-10-25T10:29:21.158Z,33.26
2022-10-25T10:31:47.453Z,33.63
2022-10-25T10:34:13.845Z,33.46
2022-10-25T10:36:40.169Z,33.18
2022-10-25T10:39:06.498Z,32.74
2022-10-25T10:41:32.855Z,32.40
2022-10-25T10:43:59.179Z,31.63
2022-10-25T10:46:25.498Z,32.29
2022-10-25T10:48:51.869Z,32.39
2022-10-25T10:51:42.961Z,32.38
2022-10-25T10:53:44.503Z,32.00
2022-10-25T10:56:10.823Z,31.93
2022-10-25T10:58:37.156Z,31.70
2022-10-25T11:01:03.597Z,31.11
2022-10-25T11:03:29.831Z,31.44
2022-10-25T11:05:56.170Z,31.34
2022-10-25T11:08:22.486Z,31.48
2022-10-25T11:10:48.813Z,30.99
2022-10-25T11:13:15.162Z,30.76
2022-10-25T11:15:41.534Z,30.58
2022-10-25T11:18:07.850Z,30.52
2022-10-25T11:20:34.202Z,30.31
2022-10-25T11:23:04.233Z,30.42
2022-10-25T11:25:26.897Z,30.14
2022-10-25T11:27:53.231Z,30.04
2022-10-25T11:30:19.595Z,30.22
2022-10-25T11:32:47.673Z,30.02
2022-10-25T11:35:12.259Z,29.49
2022-10-25T11:37:38.598Z,28.92
2022-10-25T11:40:04.940Z,29.11
2022-10-25T11:42:31.266Z,29.34
2022-10-25T11:44:57.583Z,28.08
2022-10-25T11:47:23.947Z,27.77
2022-10-25T11:49:54.691Z,27.80
2022-10-25T11:52:16.648Z,27.49
2022-10-25T11:54:43.005Z,27.25
2022-10-25T11:57:09.320Z,27.87
2022-10-25T11:59:35.658Z,26.81
2022-10-25T12:02:02.009Z,26.79
2022-10-25T12:04:29.549Z,26.92
2022-10-25T12:06:54.683Z,27.79
2022-10-25T12:09:21.008Z,27.64
2022-10-25T12:11:47.331Z,27.17
2022-10-25T12:14:13.684Z,26.97
2022-10-25T12:16:40.022Z,27.04
2022-10-25T12:19:06.397Z,26.81
2022-10-25T12:21:32.720Z,25.84
2022-10-25T12:23:59.062Z,25.96
2022-10-25T12:26:25.392Z,25.55
2022-10-25T12:28:51.712Z,25.70
2022-10-25T12:31:18.041Z,25.60
2022-10-25T12:33:44.370Z,25.07
2022-10-25T12:36:10.713Z,25.06
2022-10-25T12:38:37.028Z,24.50
2022-10-25T12:41:03.354Z,24.15
2022-10-25T12:43:29.686Z,23.96
2022-10-25T12:45:58.401Z,24.29
2022-10-25T12:48:22.354Z,23.99
2022-10-25T12:50:48.679Z,24.78
2022-10-25T12:53:14.999Z,24.63
2022-10-25T12:55:41.372Z,25.00
2022-10-25T12:58:07.737Z,25.20
2022-10-25T13:00:34.084Z,25.07
2022-10-25T13:03:00.452Z,24.93
2022-10-25T13:05:26.789Z,24.37
2022-10-25T13:07:53.106Z,24.39
2022-10-25T13:10:19.483Z,24.52
2022-10-25T13:12:46.253Z,24.39
2022-10-25T13:15:12.152Z,24.61
2022-10-25T13:17:38.527Z,25.12
2022-10-25T13:20:04.943Z,25.79
2022-10-25T13:22:34.270Z,26.45
2022-10-25T13:24:57.574Z,27.09
2022-10-25T13:27:23.908Z,27.72
2022-10-25T13:29:50.229Z,27.88
2022-10-25T13:32:16.607Z,27.74
2022-10-25T13:34:42.916Z,28.24
2022-10-25T13:37:09.261Z,28.72
2022-10-25T13:39:35.626Z,28.80
2022-10-25T13:42:01.941Z,28.73
2022-10-25T13:44:28.300Z,28.79
2022-10-25T13:46:54.641Z,28.80
2022-10-25T13:49:20.985Z,29.00
2022-10-25T13:51:47.328Z,29.09
2022-10-25T13:54:13.668Z,29.06
2022-10-25T13:56:39.991Z,29.27
2022-10-25T13:59:06.337Z,29.47
2022-10-25T14:01:32.742Z,29.41
2022-10-25T14:03:59.025Z,30.00
2022-10-25T14:06:25.400Z,29.96
2022-10-25T14:08:51.714Z,29.93
2022-10-25T14:11:18.054Z,29.89
2022-10-25T14:13:44.407Z,30.12
2022-10-25T14:16:10.750Z,29.87
2022-10-25T14:18:37.074Z,29.74
2022-10-25T14:21:03.396Z,29.47
2022-10-25T14:23:29.732Z,29.35
2022-10-25T14:25:56.081Z,30.36
2022-10-25T14:28:22.454Z,30.29
2022-10-25T14:30:48.795Z,30.33
2022-10-25T14:33:15.121Z,30.17
2022-10-25T14:35:41.503Z,30.17
2022-10-25T14:38:07.846Z,30.65
2022-10-25T14:40:34.192Z,30.20
2022-10-25T14:43:00.539Z,30.14
2022-10-25T14:45:26.855Z,30.16
2022-10-25T14:47:53.206Z,30.00
2022-10-25T14:50:19.529Z,29.95
2022-10-25T14:52:46.105Z,30.38
2022-10-25T14:55:12.183Z,30.56
2022-10-25T14:57:38.510Z,30.58
2022-10-25T15:00:04.851Z,30.42
2022-10-25T15:02:31.173Z,30.23
2022-10-25T15:04:57.497Z,30.39
2022-10-25T15:07:23.826Z,30.29
2022-10-25T15:09:50.188Z,30.01
2022-10-25T15:12:16.517Z,30.54
2022-10-25T15:14:42.883Z,30.21
2022-10-25T15:17:09.195Z,30.55
2022-10-25T15:19:35.550Z,30.71
2022-10-25T15:22:02.085Z,30.84
2022-10-25T15:24:28.362Z,30.91
2022-10-25T15:26:54.708Z,30.89
2022-10-25T15:29:21.027Z,31.18
2022-10-25T15:31:47.383Z,31.48
2022-10-25T15:34:13.722Z,31.60
2022-10-25T15:36:40.079Z,31.82
2022-10-25T15:39:10.496Z,31.59
2022-10-25T15:41:32.738Z,31.89
2022-10-25T15:43:59.055Z,32.41
2022-10-25T15:46:25.384Z,32.88
2022-10-25T15:48:51.728Z,33.19
2022-10-25T15:51:18.088Z,33.57
2022-10-25T15:53:44.439Z,33.47
2022-10-25T15:56:10.777Z,33.14
2022-10-25T15:58:37.120Z,33.04
2022-10-25T16:01:03.532Z,33.05
2022-10-25T16:03:29.826Z,33.09
2022-10-25T16:05:56.145Z,33.01
2022-10-25T16:08:22.534Z,32.86
2022-10-25T16:10:48.851Z,32.86
2022-10-25T16:13:15.194Z,32.90
2022-10-25T16:15:41.547Z,33.04
2022-10-25T16:18:07.898Z,33.13
2022-10-25T16:20:34.229Z,33.45
2022-10-25T16:23:00.574Z,33.89
2022-10-25T16:25:30.527Z,34.10
2022-10-25T16:27:53.235Z,34.27
2022-10-25T16:30:19.595Z,34.36
2022-10-25T16:32:46.171Z,34.57
2022-10-25T16:35:12.312Z,34.72
2022-10-25T16:37:38.630Z,34.92
2022-10-25T16:40:04.979Z,35.19
2022-10-25T16:42:31.303Z,35.51
2022-10-25T16:44:57.664Z,35.65
2022-10-25T16:47:24.011Z,35.85
2022-10-25T16:49:50.354Z,36.01
2022-10-25T16:52:16.725Z,36.26
2022-10-25T16:54:43.065Z,36.05
2022-10-25T16:57:09.379Z,36.04
2022-10-25T16:59:35.715Z,35.95
2022-10-25T17:02:02.110Z,35.97
2022-10-25T17:04:28.361Z,35.86
2022-10-25T17:06:54.701Z,36.31
2022-10-25T17:09:21.047Z,36.29
2022-10-25T17:11:47.437Z,36.25
2022-10-25T17:14:13.783Z,35.90
2022-10-25T17:16:40.110Z,36.16
2022-10-25T17:19:06.471Z,36.46
2022-10-25T17:21:32.810Z,37.03
2022-10-25T17:23:59.214Z,37.01
2022-10-25T17:26:25.538Z,36.91
2022-10-25T17:28:51.933Z,37.34
2022-10-25T17:31:18.274Z,37.73
2022-10-25T17:33:44.618Z,37.55
2022-10-25T17:36:10.955Z,37.95
2022-10-25T17:38:37.330Z,38.28
2022-10-25T17:41:03.685Z,38.09
2022-10-25T17:43:30.035Z,38.17
2022-10-25T17:45:56.357Z,38.10
2022-10-25T17:48:22.686Z,38.88
2022-10-25T17:50:49.025Z,39.69
2022-10-25T17:53:15.383Z,39.96
2022-10-25T17:55:41.735Z,39.83
2022-10-25T17:58:08.053Z,40.11
2022-10-25T18:00:34.428Z,39.83
2022-10-25T18:03:00.782Z,40.10
2022-10-25T18:05:27.117Z,41.14
2022-10-25T18:07:53.496Z,40.86
2022-10-25T18:10:19.817Z,41.17
2022-10-25T18:12:46.563Z,41.65
2022-10-25T18:15:12.489Z,41.65
2022-10-25T18:17:38.838Z,41.82
2022-10-25T18:20:05.152Z,42.21
2022-10-25T18:22:31.479Z,42.85
2022-10-25T18:24:57.822Z,42.38
2022-10-25T18:27:24.167Z,42.88
2022-10-25T18:29:50.614Z,42.99
2022-10-25T18:32:16.937Z,43.56
2022-10-25T18:34:43.257Z,43.66
2022-10-25T18:37:09.602Z,43.87
2022-10-25T18:39:35.918Z,44.05
2022-10-25T18:42:02.262Z,44.36
2022-10-25T18:44:28.605Z,44.74
2022-10-25T18:46:54.965Z,44.98
2022-10-25T18:49:21.279Z,45.12
2022-10-25T18:51:47.615Z,45.00
2022-10-25T18:54:13.983Z,45.05
2022-10-25T18:56:40.332Z,45.44
2022-10-25T18:59:06.680Z,45.66
2022-10-25T19:01:33.310Z,45.89
2022-10-25T19:03:59.367Z,45.66
2022-10-25T19:06:25.749Z,45.67
2022-10-25T19:08:52.064Z,45.97
2022-10-25T19:11:18.389Z,46.03
2022-10-25T19:13:47.599Z,46.15
2022-10-25T19:16:11.116Z,46.37
2022-10-25T19:18:37.484Z,46.29
2022-10-25T19:21:03.784Z,46.25
2022-10-25T19:23:30.103Z,46.36
2022-10-25T19:25:56.482Z,46.43
2022-10-25T19:28:22.819Z,46.80
2022-10-25T19:30:49.148Z,47.06
2022-10-25T19:33:15.525Z,47.20
2022-10-25T19:35:41.845Z,47.27
2022-10-25T19:38:08.187Z,47.61
2022-10-25T19:40:34.527Z,47.48
2022-10-25T19:43:00.856Z,47.83
2022-10-25T19:45:27.194Z,47.74
2022-10-25T19:47:53.599Z,47.70
2022-10-25T19:50:19.992Z,47.96
2022-10-25T19:52:46.374Z,48.09
2022-10-25T19:55:12.703Z,48.08
2022-10-25T19:57:39.032Z,48.14
2022-10-25T20:00:08.615Z,48.23
2022-10-25T20:02:31.776Z,48.32
2022-10-25T20:04:58.088Z,48.59
2022-10-25T20:07:24.454Z,48.97
2022-10-25T20:09:50.781Z,49.29
2022-10-25T20:12:17.170Z,49.56
2022-10-25T20:14:43.503Z,49.85
2022-10-25T20:17:09.850Z,50.19
2022-10-25T20:19:36.194Z,50.52
2022-10-25T20:22:02.518Z,50.58
2022-10-25T20:24:28.847Z,50.76
2022-10-25T20:26:55.195Z,50.87
2022-10-25T20:29:21.717Z,51.36
2022-10-25T20:31:47.892Z,51.38
2022-10-25T20:34:14.234Z,51.72
2022-10-25T20:36:40.575Z,51.58
2022-10-25T20:39:06.908Z,51.67
2022-10-25T20:41:33.271Z,51.76
2022-10-25T20:43:59.623Z,52.16
2022-10-25T20:46:26.069Z,52.18
2022-10-25T20:48:52.338Z,52.23
2022-10-25T20:51:18.680Z,52.51
2022-10-25T20:53:45.019Z,52.64
2022-10-25T20:56:11.345Z,52.53
2022-10-25T20:58:37.710Z,52.72
2022-10-25T21:01:04.152Z,53.19
2022-10-25T21:03:30.381Z,53.71
2022-10-25T21:05:56.731Z,53.96
2022-10-25T21:08:23.071Z,54.16
2022-10-25T21:10:49.419Z,54.28
2022-10-25T21:13:15.756Z,54.53
2022-10-25T21:15:42.138Z,54.82
2022-10-25T21:18:08.460Z,54.81
2022-10-25T21:20:34.788Z,54.94
2022-10-25T21:23:01.147Z,54.85
2022-10-25T21:25:27.491Z,54.77
2022-10-25T21:27:53.830Z,55.16
2022-10-25T21:30:20.175Z,55.35
2022-10-25T21:32:46.520Z,55.43
2022-10-25T21:35:12.863Z,55.80
2022-10-25T21:37:39.174Z,56.07
2022-10-25T21:40:05.634Z,56.30
2022-10-25T21:42:31.970Z,56.51
2022-10-25T21:44:58.292Z,56.63
2022-10-25T21:47:24.614Z,56.81
2022-10-25T21:49:50.960Z,57.01
2022-10-25T21:52:17.275Z,57.22
2022-10-25T21:54:43.624Z,57.53
2022-10-25T21:57:09.943Z,57.70
2022-10-25T21:59:36.291Z,58.02
2022-10-25T22:02:02.826Z,58.11
2022-10-25T22:04:29.024Z,58.37
2022-10-25T22:06:55.865Z,58.35
2022-10-25T22:09:22.191Z,58.21
2022-10-25T22:11:48.545Z,58.35
2022-10-25T22:14:14.890Z,58.44
2022-10-25T22:16:41.232Z,58.27
2022-10-25T22:19:07.562Z,58.23
2022-10-25T22:21:33.876Z,58.46
2022-10-25T22:24:00.242Z,58.98
2022-10-25T22:26:26.586Z,58.98
2022-10-25T22:28:52.924Z,59.19
2022-10-25T22:31:19.268Z,59.23
2022-10-25T22:33:45.609Z,59.63
2022-10-25T22:36:11.938Z,59.67
2022-10-25T22:38:38.274Z,60.20
2022-10-25T22:41:04.614Z,60.26
2022-10-25T22:43:30.944Z,60.10
2022-10-25T22:45:57.307Z,60.17
2022-10-25T22:48:23.647Z,60.20
2022-10-25T22:50:49.984Z,60.14
2022-10-25T22:53:16.329Z,59.90
2022-10-25T22:55:42.647Z,59.86
2022-10-25T22:58:08.975Z,59.83
2022-10-25T23:00:35.355Z,60.15
2022-10-25T23:03:01.761Z,59.83
2022-10-25T23:05:28.032Z,59.68
2022-10-25T23:07:54.403Z,59.75
2022-10-25T23:10:20.743Z,59.51
2022-10-25T23:12:47.327Z,59.58
2022-10-25T23:15:13.444Z,59.51
2022-10-25T23:17:39.806Z,59.43
2022-10-25T23:20:06.105Z,59.55
2022-10-25T23:22:32.465Z,59.74
2022-10-25T23:24:58.820Z,59.89
2022-10-25T23:27:25.185Z,60.11
2022-10-25T23:29:51.520Z,60.13
2022-10-25T23:32:17.839Z,60.00
2022-10-25T23:34:44.176Z,60.21
2022-10-25T23:37:10.523Z,60.49
2022-10-25T23:39:36.908Z,60.51
2022-10-25T23:42:03.299Z,60.67
2022-10-25T23:44:29.876Z,60.70
2022-10-25T23:46:56.152Z,60.69
2022-10-25T23:49:22.489Z,60.78
2022-10-25T23:51:48.813Z,60.75
2022-10-25T23:54:15.158Z,60.62
2022-10-25T23:56:41.478Z,60.73
2022-10-25T23:59:07.852Z,60.93
